sensor_id;sensor_type;location;lat;lon;timestamp;P1;durP1;ratioP1;P2;durP2;ratioP2
2748;SDS011;1382;52.142;11.618;2023-02-28T00:01:21;10.13;;;5.87;;
2748;SDS011;1382;52.142;11.618;2023-02-28T00:03:48;8.03;;;3.80;;
2748;SDS011;1382;52.142;11.618;2023-02-28T00:06:15;6.27;;;5.20;;
2748;SDS011;1382;52.142;11.618;2023-02-28T00:08:42;5.17;;;4.10;;
2748;SDS011;1382;52.142;11.618;2023-02-28T00:11:10;6.70;;;5.07;;
2748;SDS011;1382;52.142;11.618;2023-02-28T00:13:40;8.77;;;5.23;;
2748;SDS011;1382;52.142;11.618;2023-02-28T00:16:09;10.97;;;5.47;;
2748;SDS011;1382;52.142;11.618;2023-02-28T00:18:37;11.20;;;6.30;;
2748;SDS011;1382;52.142;11.618;2023-02-28T00:21:04;8.60;;;5.93;;
2748;SDS011;1382;52.142;11.618;2023-02-28T00:23:31;11.20;;;5.97;;
2748;SDS011;1382;52.142;11.618;2023-02-28T00:25:58;8.60;;;5.60;;
2748;SDS011;1382;52.142;11.618;2023-02-28T00:28:25;12.83;;;5.43;;
2748;SDS011;1382;52.142;11.618;2023-02-28T00:30:53;6.83;;;5.10;;
2748;SDS011;1382;52.142;11.618;2023-02-28T00:33:20;6.20;;;4.80;;
2748;SDS011;1382;52.142;11.618;2023-02-28T00:35:47;7.93;;;5.20;;
2748;SDS011;1382;52.142;11.618;2023-02-28T00:38:14;7.33;;;5.03;;
2748;SDS011;1382;52.142;11.618;2023-02-28T00:40:41;11.03;;;5.40;;
2748;SDS011;1382;52.142;11.618;2023-02-28T00:43:08;9.50;;;6.13;;
2748;SDS011;1382;52.142;11.618;2023-02-28T00:45:35;16.07;;;7.60;;
2748;SDS011;1382;52.142;11.618;2023-02-28T00:48:03;15.07;;;7.10;;
2748;SDS011;1382;52.142;11.618;2023-02-28T00:50:30;9.13;;;4.80;;
2748;SDS011;1382;52.142;11.618;2023-02-28T00:52:57;6.97;;;5.30;;
2748;SDS011;1382;52.142;11.618;2023-02-28T00:55:24;9.53;;;6.10;;
2748;SDS011;1382;52.142;11.618;2023-02-28T00:57:50;10.33;;;6.00;;
2748;SDS011;1382;52.142;11.618;2023-02-28T01:00:17;9.40;;;5.90;;
2748;SDS011;1382;52.142;11.618;2023-02-28T01:02:45;7.83;;;5.70;;
2748;SDS011;1382;52.142;11.618;2023-02-28T01:05:13;10.50;;;6.47;;
2748;SDS011;1382;52.142;11.618;2023-02-28T01:07:39;10.47;;;5.90;;
2748;SDS011;1382;52.142;11.618;2023-02-28T01:10:07;10.00;;;5.77;;
2748;SDS011;1382;52.142;11.618;2023-02-28T01:12:34;11.07;;;5.73;;
2748;SDS011;1382;52.142;11.618;2023-02-28T01:15:01;7.87;;;6.30;;
2748;SDS011;1382;52.142;11.618;2023-02-28T01:17:28;10.30;;;6.23;;
2748;SDS011;1382;52.142;11.618;2023-02-28T01:19:55;9.73;;;5.43;;
2748;SDS011;1382;52.142;11.618;2023-02-28T01:22:23;9.07;;;5.60;;
2748;SDS011;1382;52.142;11.618;2023-02-28T01:24:50;6.47;;;4.30;;
2748;SDS011;1382;52.142;11.618;2023-02-28T01:27:17;8.10;;;5.00;;
2748;SDS011;1382;52.142;11.618;2023-02-28T01:29:44;10.27;;;5.30;;
2748;SDS011;1382;52.142;11.618;2023-02-28T01:32:11;10.50;;;6.30;;
2748;SDS011;1382;52.142;11.618;2023-02-28T01:34:37;7.40;;;4.90;;
2748;SDS011;1382;52.142;11.618;2023-02-28T01:37:04;9.20;;;4.43;;
2748;SDS011;1382;52.142;11.618;2023-02-28T01:39:33;8.83;;;4.87;;
2748;SDS011;1382;52.142;11.618;2023-02-28T01:41:59;8.87;;;4.80;;
2748;SDS011;1382;52.142;11.618;2023-02-28T01:47:23;4.47;;;3.53;;
2748;SDS011;1382;52.142;11.618;2023-02-28T01:49:53;6.20;;;4.23;;
2748;SDS011;1382;52.142;11.618;2023-02-28T01:52:20;5.87;;;3.73;;
2748;SDS011;1382;52.142;11.618;2023-02-28T01:54:50;7.07;;;5.37;;
2748;SDS011;1382;52.142;11.618;2023-02-28T01:57:20;8.97;;;4.93;;
2748;SDS011;1382;52.142;11.618;2023-02-28T01:59:51;9.40;;;5.47;;
2748;SDS011;1382;52.142;11.618;2023-02-28T02:02:23;13.10;;;5.47;;
2748;SDS011;1382;52.142;11.618;2023-02-28T02:04:51;8.23;;;5.27;;
2748;SDS011;1382;52.142;11.618;2023-02-28T02:07:21;14.87;;;5.03;;
2748;SDS011;1382;52.142;11.618;2023-02-28T02:09:56;12.30;;;4.10;;
2748;SDS011;1382;52.142;11.618;2023-02-28T02:12:28;7.23;;;4.90;;
2748;SDS011;1382;52.142;11.618;2023-02-28T02:15:08;5.97;;;4.47;;
2748;SDS011;1382;52.142;11.618;2023-02-28T02:17:43;5.73;;;4.43;;
2748;SDS011;1382;52.142;11.618;2023-02-28T02:20:32;7.47;;;5.00;;
2748;SDS011;1382;52.142;11.618;2023-02-28T02:23:31;7.40;;;4.90;;
2748;SDS011;1382;52.142;11.618;2023-02-28T02:26:21;7.40;;;4.57;;
2748;SDS011;1382;52.142;11.618;2023-02-28T02:29:12;8.90;;;5.30;;
2748;SDS011;1382;52.142;11.618;2023-02-28T02:32:07;7.27;;;4.47;;
2748;SDS011;1382;52.142;11.618;2023-02-28T02:34:46;4.63;;;4.13;;
2748;SDS011;1382;52.142;11.618;2023-02-28T02:37:24;4.23;;;3.83;;
2748;SDS011;1382;52.142;11.618;2023-02-28T02:39:57;8.57;;;5.83;;
2748;SDS011;1382;52.142;11.618;2023-02-28T02:42:31;7.00;;;3.97;;
2748;SDS011;1382;52.142;11.618;2023-02-28T02:45:06;11.70;;;5.10;;
2748;SDS011;1382;52.142;11.618;2023-02-28T02:47:36;4.87;;;4.30;;
2748;SDS011;1382;52.142;11.618;2023-02-28T02:50:07;7.10;;;4.70;;
2748;SDS011;1382;52.142;11.618;2023-02-28T02:52:39;9.00;;;5.17;;
2748;SDS011;1382;52.142;11.618;2023-02-28T02:55:11;8.20;;;4.97;;
2748;SDS011;1382;52.142;11.618;2023-02-28T02:57:40;10.57;;;4.60;;
2748;SDS011;1382;52.142;11.618;2023-02-28T03:00:11;9.40;;;4.57;;
2748;SDS011;1382;52.142;11.618;2023-02-28T03:02:40;6.30;;;3.73;;
2748;SDS011;1382;52.142;11.618;2023-02-28T03:05:12;9.13;;;4.30;;
2748;SDS011;1382;52.142;11.618;2023-02-28T03:07:43;7.00;;;3.50;;
2748;SDS011;1382;52.142;11.618;2023-02-28T03:10:30;6.50;;;4.43;;
2748;SDS011;1382;52.142;11.618;2023-02-28T03:13:02;8.60;;;4.03;;
2748;SDS011;1382;52.142;11.618;2023-02-28T03:15:40;14.53;;;4.07;;
2748;SDS011;1382;52.142;11.618;2023-02-28T03:18:18;6.97;;;3.73;;
2748;SDS011;1382;52.142;11.618;2023-02-28T03:20:54;7.63;;;4.80;;
2748;SDS011;1382;52.142;11.618;2023-02-28T03:23:27;5.73;;;3.27;;
2748;SDS011;1382;52.142;11.618;2023-02-28T03:26:02;5.30;;;3.73;;
2748;SDS011;1382;52.142;11.618;2023-02-28T03:28:36;4.63;;;3.60;;
2748;SDS011;1382;52.142;11.618;2023-02-28T03:31:08;4.67;;;3.90;;
2748;SDS011;1382;52.142;11.618;2023-02-28T03:33:42;4.73;;;4.00;;
2748;SDS011;1382;52.142;11.618;2023-02-28T03:36:15;5.13;;;3.13;;
2748;SDS011;1382;52.142;11.618;2023-02-28T03:38:46;3.97;;;3.47;;
2748;SDS011;1382;52.142;11.618;2023-02-28T03:41:17;5.90;;;3.10;;
2748;SDS011;1382;52.142;11.618;2023-02-28T03:43:48;6.40;;;3.80;;
2748;SDS011;1382;52.142;11.618;2023-02-28T03:46:21;3.43;;;3.10;;
2748;SDS011;1382;52.142;11.618;2023-02-28T03:48:53;5.83;;;3.47;;
2748;SDS011;1382;52.142;11.618;2023-02-28T03:51:24;5.00;;;3.80;;
2748;SDS011;1382;52.142;11.618;2023-02-28T03:53:54;7.20;;;4.23;;
2748;SDS011;1382;52.142;11.618;2023-02-28T03:56:27;4.23;;;3.00;;
2748;SDS011;1382;52.142;11.618;2023-02-28T03:58:58;5.40;;;3.20;;
2748;SDS011;1382;52.142;11.618;2023-02-28T04:01:30;5.30;;;3.93;;
2748;SDS011;1382;52.142;11.618;2023-02-28T04:04:00;3.70;;;3.27;;
2748;SDS011;1382;52.142;11.618;2023-02-28T04:06:30;6.00;;;4.07;;
2748;SDS011;1382;52.142;11.618;2023-02-28T04:08:59;5.00;;;3.20;;
2748;SDS011;1382;52.142;11.618;2023-02-28T04:11:27;5.17;;;3.40;;
2748;SDS011;1382;52.142;11.618;2023-02-28T04:13:58;7.97;;;3.93;;
2748;SDS011;1382;52.142;11.618;2023-02-28T04:16:25;5.03;;;3.50;;
2748;SDS011;1382;52.142;11.618;2023-02-28T04:19:00;4.33;;;2.80;;
2748;SDS011;1382;52.142;11.618;2023-02-28T04:21:29;7.23;;;3.63;;
2748;SDS011;1382;52.142;11.618;2023-02-28T04:23:58;7.83;;;2.87;;
2748;SDS011;1382;52.142;11.618;2023-02-28T04:26:24;6.70;;;3.73;;
2748;SDS011;1382;52.142;11.618;2023-02-28T04:28:51;8.77;;;4.13;;
2748;SDS011;1382;52.142;11.618;2023-02-28T04:31:18;5.33;;;3.50;;
2748;SDS011;1382;52.142;11.618;2023-02-28T04:33:45;4.80;;;3.17;;
2748;SDS011;1382;52.142;11.618;2023-02-28T04:36:12;6.53;;;3.70;;
2748;SDS011;1382;52.142;11.618;2023-02-28T04:38:40;3.97;;;3.20;;
2748;SDS011;1382;52.142;11.618;2023-02-28T04:41:06;37.87;;;6.13;;
2748;SDS011;1382;52.142;11.618;2023-02-28T04:43:33;5.70;;;3.90;;
2748;SDS011;1382;52.142;11.618;2023-02-28T04:46:00;5.53;;;3.00;;
2748;SDS011;1382;52.142;11.618;2023-02-28T04:48:30;5.23;;;3.40;;
2748;SDS011;1382;52.142;11.618;2023-02-28T04:50:59;5.43;;;3.70;;
2748;SDS011;1382;52.142;11.618;2023-02-28T04:53:27;3.57;;;3.27;;
2748;SDS011;1382;52.142;11.618;2023-02-28T04:55:56;4.03;;;2.83;;
2748;SDS011;1382;52.142;11.618;2023-02-28T04:58:23;5.17;;;3.00;;
2748;SDS011;1382;52.142;11.618;2023-02-28T05:00:50;2.93;;;2.40;;
2748;SDS011;1382;52.142;11.618;2023-02-28T05:03:17;4.83;;;3.10;;
2748;SDS011;1382;52.142;11.618;2023-02-28T05:05:45;5.53;;;2.50;;
2748;SDS011;1382;52.142;11.618;2023-02-28T05:08:11;3.90;;;3.10;;
2748;SDS011;1382;52.142;11.618;2023-02-28T05:10:38;3.80;;;2.53;;
2748;SDS011;1382;52.142;11.618;2023-02-28T05:13:08;4.67;;;2.77;;
2748;SDS011;1382;52.142;11.618;2023-02-28T05:15:36;2.47;;;2.27;;
2748;SDS011;1382;52.142;11.618;2023-02-28T05:18:03;3.67;;;2.70;;
2748;SDS011;1382;52.142;11.618;2023-02-28T05:20:30;2.97;;;2.67;;
2748;SDS011;1382;52.142;11.618;2023-02-28T05:22:57;2.73;;;2.53;;
2748;SDS011;1382;52.142;11.618;2023-02-28T05:25:25;3.87;;;2.53;;
2748;SDS011;1382;52.142;11.618;2023-02-28T05:27:52;5.27;;;2.63;;
2748;SDS011;1382;52.142;11.618;2023-02-28T05:30:20;4.17;;;2.60;;
2748;SDS011;1382;52.142;11.618;2023-02-28T05:32:49;3.23;;;2.30;;
2748;SDS011;1382;52.142;11.618;2023-02-28T05:35:17;4.00;;;2.73;;
2748;SDS011;1382;52.142;11.618;2023-02-28T05:37:44;3.87;;;3.03;;
2748;SDS011;1382;52.142;11.618;2023-02-28T05:40:11;4.70;;;3.57;;
2748;SDS011;1382;52.142;11.618;2023-02-28T05:42:38;4.80;;;3.17;;
2748;SDS011;1382;52.142;11.618;2023-02-28T05:45:06;4.90;;;3.47;;
2748;SDS011;1382;52.142;11.618;2023-02-28T05:47:35;7.40;;;3.30;;
2748;SDS011;1382;52.142;11.618;2023-02-28T05:50:02;4.57;;;2.50;;
2748;SDS011;1382;52.142;11.618;2023-02-28T05:52:29;8.83;;;4.17;;
2748;SDS011;1382;52.142;11.618;2023-02-28T05:54:56;4.63;;;3.00;;
2748;SDS011;1382;52.142;11.618;2023-02-28T05:57:23;3.87;;;3.50;;
2748;SDS011;1382;52.142;11.618;2023-02-28T05:59:50;6.00;;;3.10;;
2748;SDS011;1382;52.142;11.618;2023-02-28T06:02:17;6.57;;;3.37;;
2748;SDS011;1382;52.142;11.618;2023-02-28T06:04:46;6.47;;;3.50;;
2748;SDS011;1382;52.142;11.618;2023-02-28T06:07:13;3.73;;;2.57;;
2748;SDS011;1382;52.142;11.618;2023-02-28T06:09:39;4.27;;;3.30;;
2748;SDS011;1382;52.142;11.618;2023-02-28T06:12:06;3.33;;;2.80;;
2748;SDS011;1382;52.142;11.618;2023-02-28T06:14:33;4.53;;;2.47;;
2748;SDS011;1382;52.142;11.618;2023-02-28T06:17:01;6.20;;;3.37;;
2748;SDS011;1382;52.142;11.618;2023-02-28T06:19:29;3.10;;;2.80;;
2748;SDS011;1382;52.142;11.618;2023-02-28T06:21:57;10.27;;;3.67;;
2748;SDS011;1382;52.142;11.618;2023-02-28T06:24:24;3.23;;;2.90;;
2748;SDS011;1382;52.142;11.618;2023-02-28T06:26:52;4.27;;;3.37;;
2748;SDS011;1382;52.142;11.618;2023-02-28T06:29:19;4.50;;;2.63;;
2748;SDS011;1382;52.142;11.618;2023-02-28T06:31:46;4.20;;;2.43;;
2748;SDS011;1382;52.142;11.618;2023-02-28T06:34:13;8.37;;;3.40;;
2748;SDS011;1382;52.142;11.618;2023-02-28T06:36:41;11.43;;;3.33;;
2748;SDS011;1382;52.142;11.618;2023-02-28T06:39:09;4.83;;;3.30;;
2748;SDS011;1382;52.142;11.618;2023-02-28T06:41:36;7.47;;;4.43;;
2748;SDS011;1382;52.142;11.618;2023-02-28T06:44:19;8.67;;;3.80;;
2748;SDS011;1382;52.142;11.618;2023-02-28T06:46:46;7.80;;;2.90;;
2748;SDS011;1382;52.142;11.618;2023-02-28T06:49:13;4.60;;;2.60;;
2748;SDS011;1382;52.142;11.618;2023-02-28T06:51:41;12.37;;;5.17;;
2748;SDS011;1382;52.142;11.618;2023-02-28T06:54:10;6.57;;;3.45;;
2748;SDS011;1382;52.142;11.618;2023-02-28T06:56:38;5.60;;;3.37;;
2748;SDS011;1382;52.142;11.618;2023-02-28T06:59:05;6.03;;;3.80;;
2748;SDS011;1382;52.142;11.618;2023-02-28T07:01:32;6.90;;;3.33;;
2748;SDS011;1382;52.142;11.618;2023-02-28T07:04:00;5.03;;;3.00;;
2748;SDS011;1382;52.142;11.618;2023-02-28T07:06:27;6.17;;;3.77;;
2748;SDS011;1382;52.142;11.618;2023-02-28T07:08:54;6.17;;;3.70;;
2748;SDS011;1382;52.142;11.618;2023-02-28T07:11:23;4.73;;;4.27;;
2748;SDS011;1382;52.142;11.618;2023-02-28T07:13:52;6.85;;;3.80;;
2748;SDS011;1382;52.142;11.618;2023-02-28T07:16:19;8.37;;;3.73;;
2748;SDS011;1382;52.142;11.618;2023-02-28T07:18:46;10.53;;;4.07;;
2748;SDS011;1382;52.142;11.618;2023-02-28T07:21:13;9.90;;;4.17;;
2748;SDS011;1382;52.142;11.618;2023-02-28T07:23:40;4.33;;;3.07;;
2748;SDS011;1382;52.142;11.618;2023-02-28T07:26:07;4.03;;;3.17;;
2748;SDS011;1382;52.142;11.618;2023-02-28T07:28:39;5.70;;;3.00;;
2748;SDS011;1382;52.142;11.618;2023-02-28T07:31:06;6.67;;;3.30;;
2748;SDS011;1382;52.142;11.618;2023-02-28T07:33:34;6.50;;;2.90;;
2748;SDS011;1382;52.142;11.618;2023-02-28T07:36:02;6.77;;;3.63;;
2748;SDS011;1382;52.142;11.618;2023-02-28T07:38:29;4.83;;;3.50;;
2748;SDS011;1382;52.142;11.618;2023-02-28T07:40:56;4.57;;;3.73;;
2748;SDS011;1382;52.142;11.618;2023-02-28T07:43:23;3.37;;;2.77;;
2748;SDS011;1382;52.142;11.618;2023-02-28T07:45:51;8.90;;;5.00;;
2748;SDS011;1382;52.142;11.618;2023-02-28T07:48:18;4.90;;;3.73;;
2748;SDS011;1382;52.142;11.618;2023-02-28T07:50:44;3.77;;;3.20;;
2748;SDS011;1382;52.142;11.618;2023-02-28T07:53:19;6.80;;;4.13;;
2748;SDS011;1382;52.142;11.618;2023-02-28T07:55:46;4.20;;;2.70;;
2748;SDS011;1382;52.142;11.618;2023-02-28T07:58:13;5.93;;;3.30;;
2748;SDS011;1382;52.142;11.618;2023-02-28T08:00:39;6.00;;;3.43;;
2748;SDS011;1382;52.142;11.618;2023-02-28T08:03:08;7.00;;;3.70;;
2748;SDS011;1382;52.142;11.618;2023-02-28T08:05:38;7.67;;;3.67;;
2748;SDS011;1382;52.142;11.618;2023-02-28T08:08:05;4.97;;;3.63;;
2748;SDS011;1382;52.142;11.618;2023-02-28T08:10:32;5.03;;;2.87;;
2748;SDS011;1382;52.142;11.618;2023-02-28T08:12:58;12.30;;;4.67;;
2748;SDS011;1382;52.142;11.618;2023-02-28T08:15:25;7.33;;;3.50;;
2748;SDS011;1382;52.142;11.618;2023-02-28T08:17:52;4.90;;;3.30;;
2748;SDS011;1382;52.142;11.618;2023-02-28T08:20:21;5.87;;;3.20;;
2748;SDS011;1382;52.142;11.618;2023-02-28T08:22:47;6.50;;;3.97;;
2748;SDS011;1382;52.142;11.618;2023-02-28T08:25:14;4.87;;;2.70;;
2748;SDS011;1382;52.142;11.618;2023-02-28T08:27:41;5.77;;;3.33;;
2748;SDS011;1382;52.142;11.618;2023-02-28T08:30:09;6.77;;;3.27;;
2748;SDS011;1382;52.142;11.618;2023-02-28T08:32:37;6.60;;;3.10;;
2748;SDS011;1382;52.142;11.618;2023-02-28T08:35:05;7.77;;;3.80;;
2748;SDS011;1382;52.142;11.618;2023-02-28T08:37:34;5.60;;;3.87;;
2748;SDS011;1382;52.142;11.618;2023-02-28T08:40:01;4.90;;;3.83;;
2748;SDS011;1382;52.142;11.618;2023-02-28T08:42:27;6.20;;;4.00;;
2748;SDS011;1382;52.142;11.618;2023-02-28T08:44:54;6.13;;;3.80;;
2748;SDS011;1382;52.142;11.618;2023-02-28T08:47:21;2.90;;;2.67;;
2748;SDS011;1382;52.142;11.618;2023-02-28T08:49:48;3.87;;;2.67;;
2748;SDS011;1382;52.142;11.618;2023-02-28T08:52:14;3.27;;;2.90;;
2748;SDS011;1382;52.142;11.618;2023-02-28T08:54:43;7.40;;;3.63;;
2748;SDS011;1382;52.142;11.618;2023-02-28T08:57:09;6.87;;;3.70;;
2748;SDS011;1382;52.142;11.618;2023-02-28T08:59:36;3.90;;;2.83;;
2748;SDS011;1382;52.142;11.618;2023-02-28T09:02:03;4.70;;;2.97;;
2748;SDS011;1382;52.142;11.618;2023-02-28T09:04:30;4.70;;;3.30;;
2748;SDS011;1382;52.142;11.618;2023-02-28T09:06:57;7.40;;;3.37;;
2748;SDS011;1382;52.142;11.618;2023-02-28T09:09:23;4.00;;;2.77;;
2748;SDS011;1382;52.142;11.618;2023-02-28T09:11:51;1.50;;;1.33;;
2748;SDS011;1382;52.142;11.618;2023-02-28T09:14:18;7.63;;;3.20;;
2748;SDS011;1382;52.142;11.618;2023-02-28T09:16:45;4.03;;;2.90;;
2748;SDS011;1382;52.142;11.618;2023-02-28T09:19:12;2.03;;;1.57;;
2748;SDS011;1382;52.142;11.618;2023-02-28T09:21:39;2.67;;;1.60;;
2748;SDS011;1382;52.142;11.618;2023-02-28T09:24:06;5.70;;;2.67;;
2748;SDS011;1382;52.142;11.618;2023-02-28T09:26:34;2.30;;;2.07;;
2748;SDS011;1382;52.142;11.618;2023-02-28T09:29:13;3.03;;;2.50;;
2748;SDS011;1382;52.142;11.618;2023-02-28T09:31:40;4.33;;;2.67;;
2748;SDS011;1382;52.142;11.618;2023-02-28T09:34:07;4.83;;;1.97;;
2748;SDS011;1382;52.142;11.618;2023-02-28T09:36:34;3.23;;;2.20;;
2748;SDS011;1382;52.142;11.618;2023-02-28T09:39:11;4.43;;;3.47;;
2748;SDS011;1382;52.142;11.618;2023-02-28T09:41:39;2.10;;;1.63;;
2748;SDS011;1382;52.142;11.618;2023-02-28T09:44:09;0.70;;;0.70;;
2748;SDS011;1382;52.142;11.618;2023-02-28T09:46:43;4.27;;;2.70;;
2748;SDS011;1382;52.142;11.618;2023-02-28T09:49:15;3.43;;;2.50;;
2748;SDS011;1382;52.142;11.618;2023-02-28T09:51:46;3.27;;;2.20;;
2748;SDS011;1382;52.142;11.618;2023-02-28T09:54:27;4.20;;;2.13;;
2748;SDS011;1382;52.142;11.618;2023-02-28T09:56:58;3.53;;;1.17;;
2748;SDS011;1382;52.142;11.618;2023-02-28T09:59:44;3.23;;;2.50;;
2748;SDS011;1382;52.142;11.618;2023-02-28T10:02:21;2.90;;;1.93;;
2748;SDS011;1382;52.142;11.618;2023-02-28T10:05:06;3.37;;;2.17;;
2748;SDS011;1382;52.142;11.618;2023-02-28T10:07:45;3.70;;;2.23;;
2748;SDS011;1382;52.142;11.618;2023-02-28T10:10:20;2.60;;;2.20;;
2748;SDS011;1382;52.142;11.618;2023-02-28T10:12:51;0.80;;;0.80;;
2748;SDS011;1382;52.142;11.618;2023-02-28T10:15:21;3.00;;;2.20;;
2748;SDS011;1382;52.142;11.618;2023-02-28T10:17:52;3.20;;;1.80;;
2748;SDS011;1382;52.142;11.618;2023-02-28T10:20:34;2.00;;;1.70;;
2748;SDS011;1382;52.142;11.618;2023-02-28T10:23:07;1.80;;;1.63;;
2748;SDS011;1382;52.142;11.618;2023-02-28T10:25:38;2.30;;;1.90;;
2748;SDS011;1382;52.142;11.618;2023-02-28T10:28:10;2.60;;;1.90;;
2748;SDS011;1382;52.142;11.618;2023-02-28T10:30:40;3.63;;;2.33;;
2748;SDS011;1382;52.142;11.618;2023-02-28T10:33:14;6.17;;;1.70;;
2748;SDS011;1382;52.142;11.618;2023-02-28T10:35:45;5.60;;;2.67;;
2748;SDS011;1382;52.142;11.618;2023-02-28T10:38:14;5.20;;;2.10;;
2748;SDS011;1382;52.142;11.618;2023-02-28T10:40:43;2.50;;;1.80;;
2748;SDS011;1382;52.142;11.618;2023-02-28T10:43:20;2.53;;;1.83;;
2748;SDS011;1382;52.142;11.618;2023-02-28T10:45:55;2.90;;;2.27;;
2748;SDS011;1382;52.142;11.618;2023-02-28T10:48:27;5.87;;;2.27;;
2748;SDS011;1382;52.142;11.618;2023-02-28T10:50:56;4.83;;;1.63;;
2748;SDS011;1382;52.142;11.618;2023-02-28T10:53:28;2.77;;;2.00;;
2748;SDS011;1382;52.142;11.618;2023-02-28T10:56:20;3.10;;;1.53;;
2748;SDS011;1382;52.142;11.618;2023-02-28T10:58:50;2.40;;;1.10;;
2748;SDS011;1382;52.142;11.618;2023-02-28T11:01:21;2.50;;;1.73;;
2748;SDS011;1382;52.142;11.618;2023-02-28T11:03:50;7.10;;;2.40;;
2748;SDS011;1382;52.142;11.618;2023-02-28T11:06:19;3.63;;;1.60;;
2748;SDS011;1382;52.142;11.618;2023-02-28T11:08:48;5.20;;;1.80;;
2748;SDS011;1382;52.142;11.618;2023-02-28T11:11:18;4.77;;;2.20;;
2748;SDS011;1382;52.142;11.618;2023-02-28T11:13:46;2.33;;;1.93;;
2748;SDS011;1382;52.142;11.618;2023-02-28T11:16:14;4.10;;;2.20;;
2748;SDS011;1382;52.142;11.618;2023-02-28T11:18:43;2.70;;;1.80;;
2748;SDS011;1382;52.142;11.618;2023-02-28T11:21:22;3.87;;;2.27;;
2748;SDS011;1382;52.142;11.618;2023-02-28T11:23:51;3.07;;;2.13;;
2748;SDS011;1382;52.142;11.618;2023-02-28T11:26:37;2.33;;;1.23;;
2748;SDS011;1382;52.142;11.618;2023-02-28T11:29:11;3.37;;;2.20;;
2748;SDS011;1382;52.142;11.618;2023-02-28T11:31:42;3.20;;;2.10;;
2748;SDS011;1382;52.142;11.618;2023-02-28T11:37:02;4.27;;;2.47;;
2748;SDS011;1382;52.142;11.618;2023-02-28T11:39:29;3.57;;;2.20;;
2748;SDS011;1382;52.142;11.618;2023-02-28T11:42:05;2.83;;;1.87;;
2748;SDS011;1382;52.142;11.618;2023-02-28T11:44:44;3.60;;;2.80;;
2748;SDS011;1382;52.142;11.618;2023-02-28T11:47:20;4.97;;;2.97;;
2748;SDS011;1382;52.142;11.618;2023-02-28T11:50:00;2.63;;;1.80;;
2748;SDS011;1382;52.142;11.618;2023-02-28T11:52:37;4.27;;;3.00;;
2748;SDS011;1382;52.142;11.618;2023-02-28T11:55:12;3.30;;;2.50;;
2748;SDS011;1382;52.142;11.618;2023-02-28T11:57:49;3.27;;;2.20;;
2748;SDS011;1382;52.142;11.618;2023-02-28T12:00:29;2.87;;;2.20;;
2748;SDS011;1382;52.142;11.618;2023-02-28T12:03:09;2.70;;;1.37;;
2748;SDS011;1382;52.142;11.618;2023-02-28T12:05:49;1.30;;;1.00;;
2748;SDS011;1382;52.142;11.618;2023-02-28T12:08:27;3.00;;;2.37;;
2748;SDS011;1382;52.142;11.618;2023-02-28T12:11:10;4.07;;;2.50;;
2748;SDS011;1382;52.142;11.618;2023-02-28T12:13:43;1.07;;;0.80;;
2748;SDS011;1382;52.142;11.618;2023-02-28T12:16:20;3.67;;;2.10;;
2748;SDS011;1382;52.142;11.618;2023-02-28T12:19:06;1.50;;;1.40;;
2748;SDS011;1382;52.142;11.618;2023-02-28T12:21:50;3.17;;;1.93;;
2748;SDS011;1382;52.142;11.618;2023-02-28T12:24:33;5.43;;;2.40;;
2748;SDS011;1382;52.142;11.618;2023-02-28T12:27:15;2.83;;;2.07;;
2748;SDS011;1382;52.142;11.618;2023-02-28T12:29:46;4.97;;;2.97;;
2748;SDS011;1382;52.142;11.618;2023-02-28T12:32:16;4.10;;;1.80;;
2748;SDS011;1382;52.142;11.618;2023-02-28T12:34:48;3.43;;;2.03;;
2748;SDS011;1382;52.142;11.618;2023-02-28T12:37:21;3.37;;;2.30;;
2748;SDS011;1382;52.142;11.618;2023-02-28T12:39:51;2.90;;;2.10;;
2748;SDS011;1382;52.142;11.618;2023-02-28T12:42:24;3.20;;;2.03;;
2748;SDS011;1382;52.142;11.618;2023-02-28T12:44:56;3.90;;;2.00;;
2748;SDS011;1382;52.142;11.618;2023-02-28T12:47:25;2.90;;;1.40;;
2748;SDS011;1382;52.142;11.618;2023-02-28T12:49:53;4.90;;;2.90;;
2748;SDS011;1382;52.142;11.618;2023-02-28T12:52:25;5.93;;;2.60;;
2748;SDS011;1382;52.142;11.618;2023-02-28T12:54:59;3.50;;;2.03;;
2748;SDS011;1382;52.142;11.618;2023-02-28T12:57:31;3.00;;;1.73;;
2748;SDS011;1382;52.142;11.618;2023-02-28T13:00:03;4.60;;;2.53;;
2748;SDS011;1382;52.142;11.618;2023-02-28T13:02:47;3.00;;;2.10;;
2748;SDS011;1382;52.142;11.618;2023-02-28T13:05:32;4.13;;;2.00;;
2748;SDS011;1382;52.142;11.618;2023-02-28T13:08:31;5.07;;;2.00;;
2748;SDS011;1382;52.142;11.618;2023-02-28T13:11:23;3.17;;;2.77;;
2748;SDS011;1382;52.142;11.618;2023-02-28T13:13:56;3.63;;;2.40;;
2748;SDS011;1382;52.142;11.618;2023-02-28T13:16:24;2.20;;;2.00;;
2748;SDS011;1382;52.142;11.618;2023-02-28T13:18:51;2.37;;;1.90;;
2748;SDS011;1382;52.142;11.618;2023-02-28T13:21:25;3.20;;;2.40;;
2748;SDS011;1382;52.142;11.618;2023-02-28T13:24:00;4.13;;;2.77;;
2748;SDS011;1382;52.142;11.618;2023-02-28T13:29:30;4.23;;;1.90;;
2748;SDS011;1382;52.142;11.618;2023-02-28T13:44:07;2.73;;;1.90;;
2748;SDS011;1382;52.142;11.618;2023-02-28T13:46:36;4.40;;;2.67;;
2748;SDS011;1382;52.142;11.618;2023-02-28T13:49:25;4.10;;;2.53;;
2748;SDS011;1382;52.142;11.618;2023-02-28T13:51:53;3.70;;;2.20;;
2748;SDS011;1382;52.142;11.618;2023-02-28T13:54:31;3.40;;;2.83;;
2748;SDS011;1382;52.142;11.618;2023-02-28T13:57:12;2.00;;;1.80;;
2748;SDS011;1382;52.142;11.618;2023-02-28T13:59:54;4.40;;;3.70;;
2748;SDS011;1382;52.142;11.618;2023-02-28T14:02:46;3.30;;;2.03;;
2748;SDS011;1382;52.142;11.618;2023-02-28T14:05:27;4.47;;;2.77;;
2748;SDS011;1382;52.142;11.618;2023-02-28T14:07:57;3.87;;;2.80;;
2748;SDS011;1382;52.142;11.618;2023-02-28T14:10:31;3.37;;;2.47;;
2748;SDS011;1382;52.142;11.618;2023-02-28T14:13:10;2.67;;;1.97;;
2748;SDS011;1382;52.142;11.618;2023-02-28T14:15:50;2.10;;;1.90;;
2748;SDS011;1382;52.142;11.618;2023-02-28T14:18:24;3.13;;;2.20;;
2748;SDS011;1382;52.142;11.618;2023-02-28T14:20:56;4.53;;;2.80;;
2748;SDS011;1382;52.142;11.618;2023-02-28T14:23:43;4.60;;;2.60;;
2748;SDS011;1382;52.142;11.618;2023-02-28T14:26:28;3.90;;;2.97;;
2748;SDS011;1382;52.142;11.618;2023-02-28T14:29:16;4.93;;;3.60;;
2748;SDS011;1382;52.142;11.618;2023-02-28T14:32:01;6.13;;;3.23;;
2748;SDS011;1382;52.142;11.618;2023-02-28T14:34:35;3.40;;;2.43;;
2748;SDS011;1382;52.142;11.618;2023-02-28T14:37:05;4.67;;;2.30;;
2748;SDS011;1382;52.142;11.618;2023-02-28T14:39:40;4.43;;;2.30;;
2748;SDS011;1382;52.142;11.618;2023-02-28T14:44:54;3.77;;;2.67;;
2748;SDS011;1382;52.142;11.618;2023-02-28T14:47:23;6.57;;;2.70;;
2748;SDS011;1382;52.142;11.618;2023-02-28T14:49:53;5.93;;;2.50;;
2748;SDS011;1382;52.142;11.618;2023-02-28T14:52:21;4.73;;;2.63;;
2748;SDS011;1382;52.142;11.618;2023-02-28T14:54:51;3.03;;;2.73;;
2748;SDS011;1382;52.142;11.618;2023-02-28T14:57:21;5.00;;;2.93;;
2748;SDS011;1382;52.142;11.618;2023-02-28T14:59:56;4.50;;;3.43;;
2748;SDS011;1382;52.142;11.618;2023-02-28T15:02:29;4.13;;;2.73;;
2748;SDS011;1382;52.142;11.618;2023-02-28T15:04:57;3.40;;;3.07;;
2748;SDS011;1382;52.142;11.618;2023-02-28T15:07:26;5.77;;;3.40;;
2748;SDS011;1382;52.142;11.618;2023-02-28T15:10:15;4.43;;;2.90;;
2748;SDS011;1382;52.142;11.618;2023-02-28T15:12:45;4.17;;;3.13;;
2748;SDS011;1382;52.142;11.618;2023-02-28T15:15:17;4.53;;;2.80;;
2748;SDS011;1382;52.142;11.618;2023-02-28T15:17:58;4.60;;;3.03;;
2748;SDS011;1382;52.142;11.618;2023-02-28T15:20:26;5.00;;;2.87;;
2748;SDS011;1382;52.142;11.618;2023-02-28T15:22:54;4.73;;;2.97;;
2748;SDS011;1382;52.142;11.618;2023-02-28T15:25:22;37.43;;;20.00;;
2748;SDS011;1382;52.142;11.618;2023-02-28T15:27:50;17.10;;;10.40;;
2748;SDS011;1382;52.142;11.618;2023-02-28T15:30:20;9.17;;;5.43;;
2748;SDS011;1382;52.142;11.618;2023-02-28T15:33:03;5.93;;;3.63;;
2748;SDS011;1382;52.142;11.618;2023-02-28T15:35:32;4.23;;;3.10;;
2748;SDS011;1382;52.142;11.618;2023-02-28T15:38:00;5.20;;;3.33;;
2748;SDS011;1382;52.142;11.618;2023-02-28T15:40:29;5.47;;;3.60;;
2748;SDS011;1382;52.142;11.618;2023-02-28T15:42:58;4.37;;;2.93;;
2748;SDS011;1382;52.142;11.618;2023-02-28T15:45:32;5.90;;;3.67;;
2748;SDS011;1382;52.142;11.618;2023-02-28T15:48:02;5.60;;;3.97;;